Latest Weather Observations for Spring Bay

IDT60801

Issued at 11:31 pm EDT Thursday 29 January 2015 (issued every 30 minutes, with the page automatically refreshed every 10 minutes)

About weather observations | Map of weather stations | Latest weather observations for TAS | Other Formats
Station Details ID: 092133 Name: SPRING BAY NTC AWS Lat: -42.55 Lon: 147.93 Height: 0.0 m
Data from the previous 72 hours. | See also: Recent months for locations in Tasmania
Date/Time
EDT
Temp
°C
App
Temp
°C
Dew
Point
Rel
Hum
%
Delta-T
°C
Wind Press
QNH
hPa
Press
MSL
hPa
Rain
since 9 am
mm
Dir
 
Spd
km/h
Gust
km/h
Spd
kts
Gust
kts
29/11:30pm 13.9 - - - - - - - - - 1021.6 1021.6 -
29/11:00pm 13.8 - - - - - - - - - 1022.0 1022.0 -
29/10:30pm 13.2 - - - - - - - - - 1022.2 1022.2 -
29/10:00pm 14.2 - - - - - - - - - 1022.0 1022.0 -
29/09:30pm 14.0 - - - - - - - - - 1022.2 1022.2 -
29/09:00pm 13.9 - - - - - - - - - 1022.1 1022.1 -
29/08:30pm 14.0 - - - - - - - - - 1022.4 1022.4 -
29/08:00pm 14.1 - - - - - - - - - 1022.4 1022.4 -
29/07:30pm 14.1 - - - - - - - - - 1022.4 1022.4 -
29/07:00pm 14.2 - - - - - - - - - 1022.3 1022.3 -
29/06:30pm 14.2 - - - - - - - - - 1022.1 1022.1 -
29/06:00pm 14.3 - - - - - - - - - 1022.3 1022.3 -
29/05:30pm 14.2 - - - - - - - - - 1022.8 1022.8 -
29/05:00pm 13.7 - - - - - - - - - 1023.0 1023.0 -
29/04:30pm 14.0 - - - - - - - - - 1023.1 1023.1 -
29/04:00pm 13.8 - - - - - - - - - 1023.1 1023.1 -
29/03:30pm 14.0 - - - - - - - - - 1023.4 1023.4 -
29/03:00pm 13.6 - - - - - - - - - 1023.5 1023.5 -
29/02:30pm 13.2 - - - - - - - - - 1023.7 1023.7 -
29/02:00pm 15.0 - - - - - - - - - 1023.8 1023.8 -
29/01:30pm 14.9 - - - - - - - - - 1023.9 1023.9 -
29/01:00pm 14.4 - - - - - - - - - 1024.0 1024.0 -
29/12:30pm 14.5 - - - - - - - - - 1024.2 1024.2 -
29/12:00pm 14.7 - - - - - - - - - 1024.4 1024.4 -
29/11:30am 13.8 - - - - - - - - - 1024.7 1024.7 -
29/11:00am 13.8 - - - - - - - - - 1024.7 1024.7 -
29/10:30am 14.5 - - - - - - - - - 1024.7 1024.7 -
29/10:00am 13.3 - - - - - - - - - 1024.7 1024.7 -
29/09:30am 13.4 - - - - - - - - - 1024.8 1024.8 -
29/09:00am 13.1 - - - - - - - - - 1024.7 1024.7 -
29/08:30am 13.3 - - - - - - - - - 1024.7 1024.7 -
29/08:00am 13.5 - - - - - - - - - 1024.4 1024.4 -
29/07:30am 13.7 - - - - - - - - - 1024.1 1024.1 -
29/07:00am 13.4 - - - - - - - - - 1024.0 1024.0 -
29/06:30am 13.9 - - - - - - - - - 1023.7 1023.7 -
29/06:00am 13.9 - - - - - - - - - 1023.6 1023.6 -
29/05:30am 13.9 - - - - - - - - - 1023.7 1023.7 -
29/05:00am 13.7 - - - - - - - - - 1023.5 1023.5 -
29/04:30am 14.0 - - - - - - - - - 1023.3 1023.3 -
29/04:00am 13.3 - - - - - - - - - 1023.4 1023.4 -
29/03:30am 13.4 - - - - - - - - - 1023.6 1023.6 -
29/03:00am 12.3 - - - - - - - - - 1023.9 1023.9 -
29/02:30am 12.3 - - - - - - - - - 1024.1 1024.1 -
29/02:00am 13.4 - - - - - - - - - 1024.2 1024.2 -
29/01:30am 13.4 - - - - - - - - - 1024.3 1024.3 -
29/01:00am 13.4 - - - - - - - - - 1024.3 1024.3 -
29/12:30am 13.5 - - - - - - - - - 1024.6 1024.6 -
29/12:00am 13.6 - - - - - - - - - 1024.7 1024.7 -
 
Date/Time
EDT
Temp
°C
App
Temp
°C
Dew
Point
Rel
Hum
%
Delta-T
°C
Wind Press
QNH
hPa
Press
MSL
hPa
Rain
since 9 am
mm
Dir
 
Spd
km/h
Gust
km/h
Spd
kts
Gust
kts
28/11:30pm 13.8 - - - - - - - - - 1024.9 1024.9 -
28/11:00pm 13.4 - - - - - - - - - 1025.1 1025.1 -
28/10:30pm 13.6 - - - - - - - - - 1025.2 1025.2 -
28/10:00pm 14.2 - - - - - - - - - 1025.2 1025.2 -
28/09:30pm 14.1 - - - - - - - - - 1025.1 1025.1 -
28/09:00pm 14.3 - - - - - - - - - 1025.0 1025.0 -
28/08:30pm 14.1 - - - - - - - - - 1024.8 1024.8 -
28/08:00pm 14.2 - - - - - - - - - 1024.7 1024.7 -
28/07:30pm 13.7 - - - - - - - - - 1024.6 1024.6 -
28/07:00pm 13.8 - - - - - - - - - 1024.5 1024.5 -
28/06:30pm 13.6 - - - - - - - - - 1024.6 1024.6 -
28/06:00pm 13.8 - - - - - - - - - 1024.3 1024.3 -
28/05:30pm 14.1 - - - - - - - - - 1024.3 1024.3 -
28/05:00pm 14.5 - - - - - - - - - 1024.4 1024.4 -
28/04:30pm 14.2 - - - - - - - - - 1024.2 1024.2 -
28/04:00pm 14.4 - - - - - - - - - 1024.0 1024.0 -
28/03:30pm 14.9 - - - - - - - - - 1024.1 1024.1 -
28/03:00pm 14.7 - - - - - - - - - 1024.3 1024.3 -
28/02:30pm 14.5 - - - - - - - - - 1024.3 1024.3 -
28/02:00pm 15.0 - - - - - - - - - 1024.1 1024.1 -
28/01:30pm 14.9 - - - - - - - - - 1024.2 1024.2 -
28/01:00pm 15.0 - - - - - - - - - 1024.1 1024.1 -
28/12:30pm 15.1 - - - - - - - - - 1024.2 1024.2 -
28/12:00pm 15.1 - - - - - - - - - 1024.0 1024.0 -
28/11:30am 15.2 - - - - - - - - - 1024.0 1024.0 -
28/11:00am 14.9 - - - - - - - - - 1024.0 1024.0 -
28/10:30am 14.7 - - - - - - - - - 1024.0 1024.0 -
28/10:00am 14.3 - - - - - - - - - 1023.9 1023.9 -
28/09:30am 12.8 - - - - - - - - - 1023.7 1023.7 -
28/09:00am 13.0 - - - - - - - - - 1023.5 1023.5 -
28/08:30am 13.5 - - - - - - - - - 1023.1 1023.1 -
28/08:00am 12.2 - - - - - - - - - 1022.8 1022.8 -
28/07:30am 12.0 - - - - - - - - - 1022.8 1022.8 -
28/07:00am 12.2 - - - - - - - - - 1022.3 1022.3 -
28/06:30am 11.8 - - - - - - - - - 1021.9 1021.9 -
28/06:00am 12.1 - - - - - - - - - 1021.6 1021.6 -
28/05:30am 12.0 - - - - - - - - - 1021.5 1021.5 -
28/05:00am 12.3 - - - - - - - - - 1021.3 1021.3 -
28/04:30am 12.6 - - - - - - - - - 1021.0 1021.0 -
28/04:00am 12.7 - - - - - - - - - 1021.1 1021.1 -
28/03:30am 12.8 - - - - - - - - - 1021.2 1021.2 -
28/03:00am 13.3 - - - - - - - - - 1021.4 1021.4 -
28/02:30am 13.3 - - - - - - - - - 1021.3 1021.3 -
28/02:00am 13.3 - - - - - - - - - 1021.3 1021.3 -
28/01:30am 13.8 - - - - - - - - - 1021.5 1021.5 -
28/01:00am 13.7 - - - - - - - - - 1021.4 1021.4 -
28/12:30am 13.8 - - - - - - - - - 1021.5 1021.5 -
28/12:00am 13.9 - - - - - - - - - 1021.5 1021.5 -
 
Date/Time
EDT
Temp
°C
App
Temp
°C
Dew
Point
Rel
Hum
%
Delta-T
°C
Wind Press
QNH
hPa
Press
MSL
hPa
Rain
since 9 am
mm
Dir
 
Spd
km/h
Gust
km/h
Spd
kts
Gust
kts
27/11:30pm 14.1 - - - - - - - - - 1021.3 1021.3 -
27/11:00pm 14.3 - - - - - - - - - 1021.3 1021.3 -
27/10:30pm 14.5 - - - - - - - - - 1021.1 1021.1 -
27/10:00pm 14.4 - - - - - - - - - 1020.9 1020.9 -
27/09:30pm 14.4 - - - - - - - - - 1020.6 1020.6 -
27/09:00pm 14.7 - - - - - - - - - 1020.3 1020.3 -
27/08:30pm 14.6 - - - - - - - - - 1020.0 1020.0 -
27/08:00pm 14.3 - - - - - - - - - 1019.5 1019.5 -
27/07:30pm 14.9 - - - - - - - - - 1019.2 1019.2 -
27/07:00pm 15.6 - - - - - - - - - 1018.7 1018.7 -
27/06:30pm 15.7 - - - - - - - - - 1018.5 1018.5 -
27/06:00pm 16.2 - - - - - - - - - 1018.3 1018.3 -
27/05:30pm 15.9 - - - - - - - - - 1018.2 1018.2 -
27/05:00pm 16.2 - - - - - - - - - 1018.1 1018.1 -
27/04:30pm 16.2 - - - - - - - - - 1018.0 1018.0 -
27/04:00pm 16.3 - - - - - - - - - 1018.0 1018.0 -
27/03:30pm 15.9 - - - - - - - - - 1017.9 1017.9 -
27/03:00pm 15.9 - - - - - - - - - 1017.7 1017.7 -
27/02:30pm 15.9 - - - - - - - - - 1017.6 1017.6 -
27/02:00pm 15.7 - - - - - - - - - 1017.7 1017.7 -
27/01:30pm 16.0 - - - - - - - - - 1017.6 1017.6 -
27/01:00pm 15.8 - - - - - - - - - 1017.5 1017.5 -
27/12:30pm 15.4 - - - - - - - - - 1017.5 1017.5 -
27/12:00pm 15.4 - - - - - - - - - 1017.6 1017.6 -
27/11:30am 15.2 - - - - - - - - - 1017.6 1017.6 -
27/11:00am 15.0 - - - - - - - - - 1017.8 1017.8 -

Other Formats:

Comma delimited format used in spreadsheet applications
http://www.bom.gov.au/fwo/IDT60801/IDT60801.95987.axf

JavaScript Object Notation format (JSON) in row-major order
http://www.bom.gov.au/fwo/IDT60801/IDT60801.95987.json